createdAt,value
2018-11-26T00:00:51.730Z,271.93
2018-11-26T00:03:24.095Z,264.93
2018-11-26T00:05:56.468Z,277.57
2018-11-26T00:08:28.859Z,174.90
2018-11-26T00:11:37.131Z,239.10
2018-11-26T00:14:08.629Z,248.40
2018-11-26T00:16:41.231Z,239.57
2018-11-26T00:19:13.588Z,215.77
2018-11-26T00:21:45.218Z,214.60
2018-11-26T00:24:16.729Z,155.63
2018-11-26T00:26:48.348Z,152.80
2018-11-26T00:29:19.836Z,191.93
2018-11-26T00:31:51.302Z,138.10
2018-11-26T00:34:22.775Z,182.50
2018-11-26T00:36:54.338Z,191.23
2018-11-26T00:39:25.847Z,183.10
2018-11-26T00:41:57.392Z,172.47
2018-11-26T00:44:28.890Z,161.60
2018-11-26T00:47:00.477Z,192.97
2018-11-26T00:49:31.966Z,193.57
2018-11-26T00:52:03.479Z,191.17
2018-11-26T00:54:34.958Z,194.20
2018-11-26T00:57:06.607Z,188.37
2018-11-26T00:59:38.310Z,214.50
2018-11-26T01:02:12.685Z,210.70
2018-11-26T01:04:44.140Z,210.33
2018-11-26T01:07:15.605Z,248.00
2018-11-26T01:09:47.034Z,235.80
2018-11-26T01:12:18.510Z,213.73
2018-11-26T01:14:49.968Z,201.87
2018-11-26T01:17:21.451Z,221.77
2018-11-26T01:19:53.004Z,239.93
2018-11-26T01:22:24.482Z,224.47
2018-11-26T01:24:56.052Z,226.73
2018-11-26T01:27:27.559Z,234.97
2018-11-26T01:29:59.103Z,245.87
2018-11-26T01:32:30.684Z,252.33
2018-11-26T01:35:02.200Z,174.00
2018-11-26T01:37:33.725Z,223.07
2018-11-26T01:40:05.451Z,239.20
2018-11-26T01:42:37.004Z,244.73
2018-11-26T01:45:09.196Z,246.07
2018-11-26T01:47:40.652Z,245.10
2018-11-26T01:50:12.113Z,238.97
2018-11-26T01:52:43.651Z,257.47
2018-11-26T01:55:15.137Z,244.13
2018-11-26T01:57:46.706Z,245.70
2018-11-26T02:00:22.412Z,254.50
2018-11-26T02:02:53.909Z,268.77
2018-11-26T02:05:25.500Z,259.17
2018-11-26T02:07:56.968Z,233.63
2018-11-26T02:10:28.445Z,235.03
2018-11-26T02:12:59.920Z,216.87
2018-11-26T02:15:41.794Z,232.20
2018-11-26T02:18:13.355Z,238.33
2018-11-26T02:20:44.881Z,210.37
2018-11-26T02:23:16.381Z,235.23
2018-11-26T02:25:47.880Z,225.17
2018-11-26T02:28:19.344Z,218.73
2018-11-26T02:30:51.036Z,221.20
2018-11-26T02:33:22.609Z,209.20
2018-11-26T02:35:54.131Z,218.63
2018-11-26T02:38:25.568Z,215.43
2018-11-26T02:40:57.391Z,203.63
2018-11-26T02:43:28.929Z,203.57
2018-11-26T02:46:00.470Z,211.43
2018-11-26T02:48:32.077Z,205.70
2018-11-26T02:51:03.527Z,196.07
2018-11-26T02:53:35.048Z,205.30
2018-11-26T02:56:06.640Z,198.20
2018-11-26T02:58:38.168Z,204.17
2018-11-26T03:01:10.005Z,211.43
2018-11-26T03:03:41.461Z,206.50
2018-11-26T03:06:13.827Z,198.43
2018-11-26T03:08:45.336Z,191.47
2018-11-26T03:11:17.042Z,181.47
2018-11-26T03:13:48.509Z,184.30
2018-11-26T03:16:19.980Z,181.27
2018-11-26T03:18:51.447Z,193.87
2018-11-26T03:21:22.914Z,196.10
2018-11-26T03:23:54.412Z,188.73
2018-11-26T03:26:25.883Z,167.77
2018-11-26T03:28:57.439Z,185.93
2018-11-26T03:31:28.931Z,159.67
2018-11-26T03:34:00.391Z,134.33
2018-11-26T03:36:31.953Z,182.93
2018-11-26T03:39:04.331Z,192.70
2018-11-26T03:41:36.732Z,190.43
2018-11-26T03:44:08.241Z,162.60
2018-11-26T03:46:39.839Z,184.27
2018-11-26T03:49:11.279Z,176.70
2018-11-26T03:51:42.770Z,160.80
2018-11-26T03:54:14.251Z,167.77
2018-11-26T03:56:45.856Z,197.73
2018-11-26T03:59:17.321Z,208.83
2018-11-26T04:01:48.871Z,203.93
2018-11-26T04:04:20.367Z,199.33
2018-11-26T04:06:51.844Z,178.13
2018-11-26T04:09:23.312Z,203.77
2018-11-26T04:11:54.911Z,178.80
2018-11-26T04:14:26.474Z,192.53
2018-11-26T04:16:58.082Z,187.93
2018-11-26T04:19:29.535Z,201.77
2018-11-26T04:22:01.101Z,196.80
2018-11-26T04:24:32.688Z,190.67
2018-11-26T04:27:05.185Z,191.60
2018-11-26T04:29:37.042Z,209.00
2018-11-26T04:32:08.631Z,209.07
2018-11-26T04:34:40.101Z,193.27
2018-11-26T04:37:11.634Z,193.33
2018-11-26T04:39:43.157Z,192.30
2018-11-26T04:42:14.812Z,191.40
2018-11-26T04:44:46.465Z,192.67
2018-11-26T04:47:18.159Z,197.10
2018-11-26T04:49:49.816Z,202.83
2018-11-26T04:52:21.793Z,190.10
2018-11-26T04:54:53.439Z,190.83
2018-11-26T04:57:24.914Z,189.83
2018-11-26T04:59:56.375Z,194.40
2018-11-26T05:02:27.848Z,190.90
2018-11-26T05:04:59.307Z,189.33
2018-11-26T05:07:30.917Z,193.20
2018-11-26T05:10:02.467Z,195.27
2018-11-26T05:12:33.983Z,167.27
2018-11-26T05:15:05.604Z,189.93
2018-11-26T05:17:37.083Z,155.87
2018-11-26T05:20:10.782Z,188.73
2018-11-26T05:22:42.397Z,225.67
2018-11-26T05:25:14.116Z,347.20
2018-11-26T05:27:45.642Z,252.27
2018-11-26T05:30:17.136Z,208.23
2018-11-26T05:32:48.717Z,150.97
2018-11-26T05:35:20.296Z,134.67
2018-11-26T05:37:57.893Z,143.50
2018-11-26T05:40:37.355Z,131.00
2018-11-26T05:43:53.271Z,126.93
2018-11-26T05:46:56.462Z,103.83
2018-11-26T05:52:59.874Z,108.63
2018-11-26T05:55:38.239Z,122.37
2018-11-26T05:58:09.871Z,140.70
2018-11-26T06:00:41.370Z,104.43
2018-11-26T06:03:12.854Z,129.93
2018-11-26T06:05:44.341Z,139.40
2018-11-26T06:08:15.817Z,155.43
2018-11-26T06:10:47.437Z,152.07
2018-11-26T06:13:18.926Z,136.17
2018-11-26T06:15:50.422Z,135.87
2018-11-26T06:18:21.952Z,153.97
2018-11-26T06:20:53.409Z,166.53
2018-11-26T06:23:24.959Z,172.20
2018-11-26T06:25:57.388Z,172.30
2018-11-26T06:28:28.939Z,110.57
2018-11-26T06:31:00.559Z,114.97
2018-11-26T06:33:32.174Z,101.93
2018-11-26T06:36:03.730Z,107.27
2018-11-26T06:38:35.320Z,112.97
2018-11-26T06:41:06.833Z,110.33
2018-11-26T06:43:38.294Z,99.00
2018-11-26T06:46:10.554Z,94.17
2018-11-26T06:48:42.010Z,105.40
2018-11-26T06:51:13.503Z,94.30
2018-11-26T06:53:44.963Z,84.07
2018-11-26T06:56:16.503Z,93.73
2018-11-26T06:58:47.995Z,91.20
2018-11-26T07:01:19.559Z,67.73
2018-11-26T07:03:51.085Z,85.13
2018-11-26T07:06:22.597Z,69.23
2018-11-26T07:08:54.109Z,83.93
2018-11-26T07:11:25.582Z,71.80
2018-11-26T07:13:57.028Z,74.50
2018-11-26T07:16:28.552Z,78.67
2018-11-26T07:18:59.989Z,75.33
2018-11-26T07:21:31.586Z,78.90
2018-11-26T07:24:03.107Z,83.23
2018-11-26T07:26:34.722Z,78.00
2018-11-26T07:29:06.175Z,87.50
2018-11-26T07:31:37.626Z,87.83
2018-11-26T07:34:09.108Z,68.10
2018-11-26T07:36:40.661Z,72.97
2018-11-26T07:39:12.140Z,68.57
2018-11-26T07:41:43.881Z,85.87
2018-11-26T07:44:19.041Z,77.07
2018-11-26T07:46:50.918Z,63.67
2018-11-26T07:49:23.411Z,67.90
2018-11-26T07:51:54.774Z,87.17
2018-11-26T07:54:26.320Z,93.97
2018-11-26T07:56:57.821Z,68.83
2018-11-26T07:59:30.175Z,86.33
2018-11-26T08:02:01.684Z,70.67
2018-11-26T08:04:33.371Z,74.13
2018-11-26T08:07:05.984Z,66.73
2018-11-26T08:09:37.594Z,74.90
2018-11-26T08:12:09.052Z,75.67
2018-11-26T08:14:40.565Z,37.43
2018-11-26T08:17:12.940Z,55.53
2018-11-26T08:19:44.485Z,55.33
2018-11-26T08:22:16.088Z,52.90
2018-11-26T08:24:47.630Z,72.47
2018-11-26T08:27:19.082Z,71.77
2018-11-26T08:29:50.563Z,68.20
2018-11-26T08:32:22.040Z,72.13
2018-11-26T08:34:53.537Z,56.90
2018-11-26T08:37:34.097Z,47.60
2018-11-26T08:40:13.157Z,43.03
2018-11-26T08:43:21.452Z,49.83
2018-11-26T08:45:55.798Z,64.63
2018-11-26T08:48:29.729Z,69.43
2018-11-26T08:51:05.129Z,61.00
2018-11-26T08:53:36.766Z,66.87
2018-11-26T08:56:08.711Z,59.47
2018-11-26T08:58:40.196Z,54.30
2018-11-26T09:01:20.583Z,53.40
2018-11-26T09:03:58.958Z,52.83
2018-11-26T09:06:30.566Z,57.30
2018-11-26T09:09:02.120Z,60.10
2018-11-26T09:11:34.539Z,46.73
2018-11-26T09:14:06.612Z,57.17
2018-11-26T09:16:38.622Z,61.80
2018-11-26T09:19:11.100Z,59.90
2018-11-26T09:21:42.564Z,66.43
2018-11-26T09:24:14.046Z,67.33
2018-11-26T09:26:45.609Z,70.17
2018-11-26T09:29:17.078Z,71.47
2018-11-26T09:31:48.613Z,71.37
2018-11-26T09:34:20.081Z,74.93
2018-11-26T09:36:51.628Z,76.77
2018-11-26T09:39:23.060Z,72.83
2018-11-26T09:41:54.684Z,59.20
2018-11-26T09:44:26.133Z,73.00
2018-11-26T09:46:57.773Z,71.90
2018-11-26T09:49:29.245Z,42.80
2018-11-26T09:52:00.754Z,76.17
2018-11-26T09:54:32.230Z,71.03
2018-11-26T09:57:03.698Z,65.13
2018-11-26T09:59:35.258Z,79.40
2018-11-26T10:02:13.319Z,62.50
2018-11-26T10:04:44.952Z,85.07
2018-11-26T10:07:16.728Z,65.17
2018-11-26T10:09:58.881Z,64.60
2018-11-26T10:12:31.094Z,52.77
2018-11-26T10:15:02.540Z,63.93
2018-11-26T10:17:34.108Z,67.87
2018-11-26T10:20:05.749Z,60.93
2018-11-26T10:22:37.356Z,59.87
2018-11-26T10:25:10.744Z,72.07
2018-11-26T10:27:42.378Z,78.30
2018-11-26T10:30:18.261Z,80.10
2018-11-26T10:32:50.876Z,56.93
2018-11-26T10:35:22.748Z,50.70
2018-11-26T10:37:54.412Z,65.83
2018-11-26T10:40:27.317Z,78.77
2018-11-26T10:42:58.895Z,77.07
2018-11-26T10:45:30.400Z,74.97
2018-11-26T10:48:02.604Z,83.23
2018-11-26T10:50:34.099Z,53.97
2018-11-26T10:53:08.447Z,74.70
2018-11-26T10:55:39.973Z,52.73
2018-11-26T10:58:11.710Z,59.03
2018-11-26T11:01:01.287Z,79.37
2018-11-26T11:03:33.702Z,74.50
2018-11-26T11:06:05.268Z,73.93
2018-11-26T11:08:52.301Z,76.13
2018-11-26T11:11:24.202Z,82.60
2018-11-26T11:13:55.736Z,63.63
2018-11-26T11:16:27.240Z,74.70
2018-11-26T11:18:58.822Z,58.47
2018-11-26T11:21:31.001Z,43.60
2018-11-26T11:24:03.836Z,56.63
2018-11-26T11:26:35.815Z,54.53
2018-11-26T11:29:07.420Z,64.57
2018-11-26T11:31:38.944Z,73.77
2018-11-26T11:34:10.467Z,74.17
2018-11-26T11:36:41.986Z,70.00
2018-11-26T11:39:13.552Z,78.33
2018-11-26T11:41:45.092Z,79.40
2018-11-26T11:44:17.564Z,75.03
2018-11-26T11:46:49.270Z,67.83
2018-11-26T11:49:20.921Z,75.70
2018-11-26T11:51:52.473Z,78.90
2018-11-26T11:54:24.045Z,68.07
2018-11-26T12:00:48.695Z,71.67
2018-11-26T12:03:21.742Z,62.33
2018-11-26T12:05:54.656Z,74.20
2018-11-26T12:08:27.285Z,71.90
2018-11-26T12:10:58.945Z,74.27
2018-11-26T12:13:30.718Z,64.80
2018-11-26T12:16:02.339Z,56.53
2018-11-26T12:18:37.566Z,52.97
2018-11-26T12:21:18.853Z,63.53
2018-11-26T12:23:51.184Z,66.40
2018-11-26T12:26:22.753Z,52.73
2018-11-26T12:28:54.243Z,75.33
2018-11-26T12:31:25.811Z,73.10
2018-11-26T12:33:57.714Z,67.57
2018-11-26T12:36:29.311Z,70.23
2018-11-26T12:39:00.899Z,63.63
2018-11-26T12:41:33.488Z,67.80
2018-11-26T12:44:05.011Z,79.83
2018-11-26T12:46:36.757Z,50.53
2018-11-26T12:49:09.156Z,65.97
2018-11-26T12:51:41.355Z,43.60
2018-11-26T12:54:13.303Z,78.00
2018-11-26T12:56:44.859Z,75.30
2018-11-26T12:59:16.406Z,78.93
2018-11-26T13:01:48.280Z,73.40
2018-11-26T13:04:20.125Z,65.90
2018-11-26T13:06:51.643Z,74.93
2018-11-26T13:09:23.318Z,72.13
2018-11-26T13:11:55.161Z,73.00
2018-11-26T13:14:26.716Z,83.90
2018-11-26T13:16:58.326Z,95.30
2018-11-26T13:19:29.900Z,71.10
2018-11-26T13:22:02.321Z,45.13
2018-11-26T13:24:33.923Z,60.17
2018-11-26T13:27:05.524Z,57.53
2018-11-26T13:29:37.100Z,75.17
2018-11-26T13:32:08.613Z,51.40
2018-11-26T13:34:40.343Z,50.83
2018-11-26T13:37:12.090Z,70.90
2018-11-26T13:39:43.694Z,75.33
2018-11-26T13:42:15.195Z,68.87
2018-11-26T13:44:46.740Z,78.30
2018-11-26T13:47:18.254Z,109.00
2018-11-26T13:49:49.914Z,79.97
2018-11-26T13:52:21.393Z,75.83
2018-11-26T13:54:53.116Z,49.77
2018-11-26T13:57:24.760Z,74.77
2018-11-26T13:59:56.398Z,78.47
2018-11-26T14:02:27.955Z,69.97
2018-11-26T14:04:59.473Z,83.07
2018-11-26T14:07:30.961Z,78.10
2018-11-26T14:10:02.665Z,90.17
2018-11-26T14:12:34.353Z,92.67
2018-11-26T14:15:08.297Z,103.20
2018-11-26T14:17:40.044Z,89.00
2018-11-26T14:20:16.002Z,84.57
2018-11-26T14:22:47.650Z,108.03
2018-11-26T14:25:19.867Z,105.23
2018-11-26T14:27:51.508Z,96.50
2018-11-26T14:30:24.649Z,113.63
2018-11-26T14:32:56.554Z,101.13
2018-11-26T14:35:28.321Z,116.97
2018-11-26T14:38:01.522Z,105.03
2018-11-26T14:40:37.469Z,121.03
2018-11-26T14:43:09.181Z,108.63
2018-11-26T14:45:40.743Z,112.07
2018-11-26T14:48:12.335Z,136.90
2018-11-26T14:50:43.904Z,144.37
2018-11-26T14:53:16.819Z,123.83
2018-11-26T14:55:48.327Z,128.40
2018-11-26T14:58:19.932Z,87.77
2018-11-26T15:00:51.522Z,86.93
2018-11-26T15:03:23.360Z,156.33
2018-11-26T15:05:55.002Z,157.07
2018-11-26T15:08:26.527Z,90.00
2018-11-26T15:10:58.112Z,67.13
2018-11-26T15:13:29.615Z,90.10
2018-11-26T15:16:01.145Z,85.70
2018-11-26T15:18:32.717Z,108.50
2018-11-26T15:21:04.221Z,103.07
2018-11-26T15:23:35.824Z,125.53
2018-11-26T15:26:07.512Z,123.20
2018-11-26T15:28:39.201Z,132.13
2018-11-26T15:31:10.859Z,103.30
2018-11-26T15:33:42.336Z,109.87
2018-11-26T15:36:13.894Z,117.33
2018-11-26T15:38:46.281Z,119.50
2018-11-26T15:41:17.747Z,126.73
2018-11-26T15:43:55.431Z,92.63
2018-11-26T15:46:27.049Z,98.30
2018-11-26T15:48:58.730Z,80.47
2018-11-26T15:51:30.235Z,85.60
2018-11-26T15:54:01.821Z,121.13
2018-11-26T15:56:33.295Z,118.43
2018-11-26T15:59:04.786Z,118.30
2018-11-26T16:01:36.305Z,135.50
2018-11-26T16:04:09.081Z,114.30
2018-11-26T16:06:40.606Z,128.00
2018-11-26T16:09:12.187Z,96.77
2018-11-26T16:11:43.783Z,84.23
2018-11-26T16:14:15.291Z,83.53
2018-11-26T16:16:46.951Z,78.70
2018-11-26T16:19:18.453Z,70.03
2018-11-26T16:21:50.036Z,76.20
2018-11-26T16:24:21.529Z,71.93
2018-11-26T16:26:53.053Z,71.17
2018-11-26T16:29:24.549Z,74.60
2018-11-26T16:31:56.021Z,47.40
2018-11-26T16:34:27.510Z,59.63
2018-11-26T16:36:59.127Z,65.17
2018-11-26T16:39:30.725Z,65.30
2018-11-26T16:42:02.406Z,76.63
2018-11-26T16:44:41.208Z,73.63
2018-11-26T16:47:12.754Z,75.13
2018-11-26T16:49:44.200Z,73.83
2018-11-26T16:52:15.751Z,81.40
2018-11-26T16:54:47.380Z,101.97
2018-11-26T16:57:18.899Z,93.40
2018-11-26T16:59:50.399Z,105.67
2018-11-26T17:02:21.981Z,107.00
2018-11-26T17:04:53.543Z,91.50
2018-11-26T17:07:25.021Z,126.47
2018-11-26T17:10:02.174Z,154.47
2018-11-26T17:12:34.752Z,79.90
2018-11-26T17:15:10.021Z,78.47
2018-11-26T17:17:46.333Z,80.83
2018-11-26T17:20:18.822Z,79.57
2018-11-26T17:22:53.784Z,99.83
2018-11-26T17:25:25.394Z,96.80
2018-11-26T17:27:57.924Z,96.47
2018-11-26T17:30:29.845Z,106.53
2018-11-26T17:33:03.720Z,110.77
2018-11-26T17:35:38.363Z,77.50
2018-11-26T17:38:13.199Z,98.37
2018-11-26T17:40:47.526Z,101.63
2018-11-26T17:43:22.597Z,123.30
2018-11-26T17:45:54.060Z,79.00
2018-11-26T17:48:25.562Z,83.33
2018-11-26T17:50:57.065Z,66.40
2018-11-26T17:53:28.615Z,82.60
2018-11-26T17:56:00.089Z,65.27
2018-11-26T17:58:31.684Z,98.47
2018-11-26T18:01:17.813Z,79.93
2018-11-26T18:03:49.394Z,83.43
2018-11-26T18:06:21.071Z,85.47
2018-11-26T18:08:52.788Z,73.33
2018-11-26T18:11:24.364Z,88.33
2018-11-26T18:13:55.991Z,98.90
2018-11-26T18:16:27.610Z,90.03
2018-11-26T18:18:59.521Z,89.20
2018-11-26T18:21:31.328Z,112.30
2018-11-26T18:24:02.950Z,83.57
2018-11-26T18:26:35.015Z,76.87
2018-11-26T18:29:07.151Z,88.80
2018-11-26T18:31:38.777Z,100.70
2018-11-26T18:34:10.453Z,113.30
2018-11-26T18:36:42.055Z,135.07
2018-11-26T18:39:17.859Z,136.80
2018-11-26T18:41:49.539Z,143.13
2018-11-26T18:44:21.095Z,131.37
2018-11-26T18:46:52.728Z,117.37
2018-11-26T18:49:24.381Z,113.13
2018-11-26T18:51:59.323Z,83.40
2018-11-26T18:54:32.247Z,55.70
2018-11-26T18:57:06.786Z,63.33
2018-11-26T18:59:38.311Z,63.17
2018-11-26T19:02:09.868Z,76.97
2018-11-26T19:04:42.549Z,71.27
2018-11-26T19:07:14.364Z,82.93
2018-11-26T19:09:45.880Z,89.70
2018-11-26T19:12:20.785Z,90.60
2018-11-26T19:14:52.287Z,100.00
2018-11-26T19:17:23.891Z,69.23
2018-11-26T19:19:59.435Z,93.30
2018-11-26T19:22:35.266Z,87.50
2018-11-26T19:25:14.346Z,90.00
2018-11-26T19:27:49.804Z,90.40
2018-11-26T19:30:23.219Z,87.93
2018-11-26T19:32:55.667Z,64.13
2018-11-26T19:35:28.097Z,75.63
2018-11-26T19:38:15.156Z,88.40
2018-11-26T19:40:45.050Z,82.87
2018-11-26T19:43:19.855Z,99.10
2018-11-26T19:45:52.318Z,82.77
2018-11-26T19:48:31.279Z,85.80
2018-11-26T19:51:08.920Z,85.73
2018-11-26T19:53:45.934Z,110.00
2018-11-26T19:56:35.209Z,100.57
2018-11-26T19:59:23.703Z,101.40
2018-11-26T20:02:12.456Z,69.10
2018-11-26T20:04:56.310Z,65.60
2018-11-26T20:07:27.996Z,86.70
2018-11-26T20:09:59.523Z,84.57
2018-11-26T20:12:31.085Z,81.93
2018-11-26T20:15:02.657Z,76.03
2018-11-26T20:17:34.261Z,94.07
2018-11-26T20:20:05.815Z,74.80
2018-11-26T20:22:37.814Z,87.17
2018-11-26T20:25:16.208Z,104.00
2018-11-26T20:27:47.773Z,83.93
2018-11-26T20:30:19.518Z,80.17
2018-11-26T20:32:51.228Z,57.10
2018-11-26T20:35:22.702Z,66.27
2018-11-26T20:37:54.272Z,64.77
2018-11-26T20:40:25.959Z,71.63
2018-11-26T20:43:11.788Z,87.07
2018-11-26T20:45:47.786Z,99.07
2018-11-26T20:48:21.371Z,122.60
2018-11-26T20:50:54.262Z,114.60
2018-11-26T20:53:27.638Z,103.83
2018-11-26T20:55:59.578Z,107.00
2018-11-26T20:58:31.237Z,107.57
2018-11-26T21:01:02.869Z,133.77
2018-11-26T21:03:34.365Z,146.57
2018-11-26T21:06:06.111Z,175.77
2018-11-26T21:08:37.687Z,154.90
2018-11-26T21:11:09.163Z,169.47
2018-11-26T21:13:40.793Z,182.13
2018-11-26T21:16:12.282Z,162.73
2018-11-26T21:18:43.942Z,141.63
2018-11-26T21:21:22.180Z,120.20
2018-11-26T21:23:55.391Z,127.80
2018-11-26T21:26:27.029Z,149.43
2018-11-26T21:28:58.663Z,140.20
2018-11-26T21:31:30.170Z,115.43
2018-11-26T21:34:01.808Z,114.57
2018-11-26T21:36:33.491Z,122.53
2018-11-26T21:39:05.248Z,122.50
2018-11-26T21:41:37.776Z,128.13
2018-11-26T21:44:09.354Z,157.50
2018-11-26T21:46:40.892Z,134.73
2018-11-26T21:49:12.402Z,116.30
2018-11-26T21:51:44.022Z,107.30
2018-11-26T21:54:15.526Z,123.10
2018-11-26T21:56:47.066Z,122.37
2018-11-26T21:59:18.653Z,108.37
2018-11-26T22:01:50.149Z,96.10
2018-11-26T22:04:21.725Z,98.47
2018-11-26T22:06:53.336Z,120.00
2018-11-26T22:09:24.828Z,116.53
2018-11-26T22:11:56.421Z,128.47
2018-11-26T22:14:27.901Z,127.03
2018-11-26T22:16:59.425Z,106.73
2018-11-26T22:19:31.050Z,114.87
2018-11-26T22:22:02.614Z,122.50
2018-11-26T22:24:34.086Z,127.70
2018-11-26T22:27:05.617Z,141.70
2018-11-26T22:29:37.126Z,128.50
2018-11-26T22:32:08.701Z,171.77
2018-11-26T22:34:40.154Z,139.03
2018-11-26T22:37:11.703Z,121.20
2018-11-26T22:39:43.157Z,120.83
2018-11-26T22:42:14.727Z,131.57
2018-11-26T22:44:46.348Z,139.33
2018-11-26T22:47:17.895Z,161.97
2018-11-26T22:49:49.392Z,168.03
2018-11-26T22:52:20.939Z,178.70
2018-11-26T22:54:52.408Z,200.43
2018-11-26T22:57:24.006Z,200.50
2018-11-26T22:59:55.476Z,191.53
2018-11-26T23:02:27.135Z,198.27
2018-11-26T23:04:58.627Z,182.10
2018-11-26T23:07:30.122Z,168.90
2018-11-26T23:10:01.598Z,170.30
2018-11-26T23:12:33.363Z,187.10
2018-11-26T23:15:04.965Z,166.90
2018-11-26T23:17:36.642Z,152.03
2018-11-26T23:20:10.432Z,157.73
2018-11-26T23:22:42.031Z,143.57
2018-11-26T23:25:14.611Z,154.10
2018-11-26T23:27:46.162Z,184.77
2018-11-26T23:30:21.717Z,176.87
2018-11-26T23:33:07.931Z,166.70
2018-11-26T23:35:39.469Z,186.70
2018-11-26T23:38:10.901Z,178.03
2018-11-26T23:40:42.435Z,161.17
2018-11-26T23:43:14.133Z,164.10
2018-11-26T23:45:46.497Z,158.57
2018-11-26T23:48:18.083Z,158.13
2018-11-26T23:50:49.718Z,164.47
2018-11-26T23:53:21.218Z,148.23
2018-11-26T23:55:52.872Z,139.57
2018-11-26T23:58:24.463Z,130.23
